DANE POGODOWE

WCZORAJ
Time Temp. Dewp. Hum. Bar.
00:01 20.3 14.7 70 1022
00:11 20.3 14.9 71 1022
00:21 20.2 14.8 71 1021.9
00:31 20.2 14.8 71 1022
00:51 20 14.8 72 1021.9
01:02 20 14.8 72 1021.8
01:12 19.9 14.7 72 1021.7
01:21 19.9 14.7 72 1021.7
01:32 19.9 14.7 72 1021.6
01:42 19.8 14.8 73 1021.4
01:52 19.8 14.6 72 1021.3
02:02 19.8 14.8 73 1021.1
02:12 19.7 14.7 73 1021.1
02:22 19.7 14.7 73 1021
02:32 19.6 14.6 73 1021
02:43 19.5 14.5 73 1020.9
02:53 19.5 14.5 73 1020.7
03:02 19.4 14.4 73 1020.7
03:12 19.3 14.6 74 1020.7
03:23 19.2 14.5 74 1020.7
03:33 19.1 14.4 74 1020.9
03:43 19.1 14.2 73 1020.7
03:53 19.1 14.2 73 1020.7
04:03 19 13.8 72 1020.9
04:13 19 13.8 72 1020.9
04:23 19 14.1 73 1020.9
04:34 18.9 14 73 1021
04:43 18.9 14 73 1021
04:53 18.8 13.9 73 1021
05:03 18.8 13.9 73 1021
05:14 18.8 13.9 73 1021.1
05:24 18.7 13.8 73 1021.1
05:33 18.7 13.8 73 1021.1
05:44 18.6 13.7 73 1021.2
05:54 18.6 13.7 73 1021.3
06:04 18.6 13.9 74 1021.4
06:14 18.7 14 74 1021.4
06:24 18.7 14 74 1021.6
06:34 18.8 14.1 74 1021.6
06:44 18.9 14.2 74 1021.7
06:55 19 14.3 74 1021.7
07:12 19.2 14.5 74 1021.9
07:22 19.4 14.7 74 1022
07:32 19.7 14.9 74 1022
07:42 20 15.2 74 1022.3
07:52 20.4 15.6 74 1022.3
08:02 20.7 15.3 71 1022.4
08:17 21.1 14.7 67 1022.5
08:31 21.5 14.9 66 1022.6
08:41 21.7 14.8 65 1022.7
08:52 21.9 15.3 66 1022.7
09:02 22 15.1 65 1022.7
09:10 22.1 15 64 1022.7
09:16 22.2 14.3 61 1022.7
09:26 22.4 14.5 61 1022.8
09:41 22.8 14.4 59 1022.8
09:51 23.1 14.4 58 1022.8
09:57 23.1 14.1 57 1023
10:08 23.4 14.4 57 1023
10:17 23.6 13.8 54 1023
10:27 23.8 13.9 54 1023.1
10:40 23.8 13.9 54 1023.1
10:50 23.9 14 54 1023.1
11:01 24 13.8 53 1023.2
11:10 24.2 14.3 54 1023.2
11:19 24.3 14.4 54 1023.3
11:29 24.3 14.1 53 1023.2
11:38 24.3 14.4 54 1023.3
11:49 24.4 14.2 53 1023.3
11:59 24.5 14.3 53 1023.4
12:09 24.5 13.7 51 1023.4
12:14 24.6 14.4 53 1023.4
12:31 24.7 14.5 53 1023.3
12:42 24.8 14.3 52 1023.4
12:51 24.9 14.1 51 1023.4
13:01 24.9 13.8 50 1023.4
13:10 25.1 14 50 1023.4
13:19 25.1 14 50 1023.4
13:29 25.1 14 50 1023.3
13:40 25.3 14.4 51 1023.3
13:50 25.3 14.1 50 1023.4
14:00 25.4 14.5 51 1023.4
14:10 25.4 14.5 51 1023.4
14:20 25.4 14.2 50 1023.5
14:30 25.4 13.9 49 1023.5
14:40 25.4 14.2 50 1023.4
14:51 25.4 14.2 50 1023.4
15:00 25.4 14.2 50 1023.3
15:10 25.4 14.5 51 1023.3
15:20 25.3 14.1 50 1023.2
15:31 25.2 14 50 1023.2
15:41 25.2 14.4 51 1023.2
15:46 25.2 14.7 52 1023.2
15:55 25.2 14.4 51 1023.2
16:11 25.1 14.6 52 1023.2
16:21 25 14.2 51 1023.1
16:27 25 14.5 52 1023.2
16:37 25 14.5 52 1023.1
16:48 25 14.8 53 1023
16:58 25 14.5 52 1023
17:08 24.9 14.7 53 1023
17:18 24.9 15 54 1023
17:28 24.9 15 54 1023
17:38 24.9 15 54 1022.8
17:48 24.8 14.9 54 1022.7
17:59 24.8 15.2 55 1022.7
18:09 24.7 15.1 55 1022.7
18:18 24.6 15.2 56 1023
18:28 24.4 15.1 56 1023.1
18:39 24.2 14.9 56 1023.1
18:42 24.2 15.2 57 1023.1
18:55 24 15 57 1023
19:05 23.9 15.1 58 1023.1
19:15 23.7 15.2 59 1023.2
19:25 23.5 15.3 60 1023.3
19:35 23.2 15.5 62 1023.4
19:45 22.9 15 61 1023.3
19:56 22.7 14.8 61 1023.4
20:06 22.4 14.5 61 1023.5
20:15 22.3 14.7 62 1023.7
20:22 22.1 14.5 62 1023.7
20:32 22 14.6 63 1023.5
20:43 21.9 14.8 64 1023.7
20:53 21.8 14.7 64 1023.7
21:08 21.7 14.6 64 1023.8
21:18 21.7 14.6 64 1023.8
21:29 21.7 14.6 64 1023.8
21:33 21.6 14.5 64 1023.8
21:48 21.6 14.5 64 1023.8
21:59 21.4 14.3 64 1023.8
22:09 21.2 14.1 64 1023.9
22:17 21.2 14.1 64 1023.8
22:27 21 13.9 64 1023.9
22:37 20.8 14 65 1023.9
22:42 20.6 13.8 65 1023.9
22:52 20.5 13.7 65 1023.9
23:03 20.5 13.7 65 1023.8
23:12 20.4 13.6 65 1023.9
23:22 20.4 13.6 65 1023.8
23:33 20.3 13.5 65 1023.8
23:43 20.2 13.4 65 1023.7
23:53 20 13.2 65 1023.4

STATYSTYKA DNIA

2020-07-12
TEMPERATURA
ŚREDNIA
22.1
MAKSIMUM
25.4
14:00
MINIMUM
18.6
05:44
CIŚNIENIE
ŚREDNIA
1022.7
MAKSIMUM
1023.9
22:09
MINIMUM
1020.7
02:53
PUNKT ROSY
ŚREDNIA
14.4
MAKSIMUM
15.6
07:52
MINIMUM
13.2
23:53
WILGOTNOŚĆ
ŚREDNIA
62
MAKSIMUM
74
03:12
MINIMUM
49
14:30
TEMPERATURA (°C)
MINIMUM
18.6
MAKSIMUM
25.4
ŚREDNIA
22.1
CIŚNIENIE (hpa)
MINIMUM
1020.7
MAKSIMUM
1023.9
ŚREDNIA
1022.7
DEVICE